sensor_id;sensor_type;location;lat;lon;timestamp;P1;durP1;ratioP1;P2;durP2;ratioP2
14326;SDS011;7247;53.330;-1.180;2022-10-31T00:00:41;67.03;;;8.03;;
14326;SDS011;7247;53.330;-1.180;2022-10-31T00:03:07;43.03;;;6.67;;
14326;SDS011;7247;53.330;-1.180;2022-10-31T00:05:34;57.70;;;8.60;;
14326;SDS011;7247;53.330;-1.180;2022-10-31T00:08:00;38.63;;;6.10;;
14326;SDS011;7247;53.330;-1.180;2022-10-31T00:10:28;32.90;;;6.03;;
14326;SDS011;7247;53.330;-1.180;2022-10-31T00:12:54;94.50;;;8.23;;
14326;SDS011;7247;53.330;-1.180;2022-10-31T00:15:21;30.43;;;6.03;;
14326;SDS011;7247;53.330;-1.180;2022-10-31T00:17:47;39.37;;;5.80;;
14326;SDS011;7247;53.330;-1.180;2022-10-31T00:20:14;130.90;;;15.10;;
14326;SDS011;7247;53.330;-1.180;2022-10-31T00:22:40;126.10;;;12.07;;
14326;SDS011;7247;53.330;-1.180;2022-10-31T00:25:07;40.40;;;6.13;;
14326;SDS011;7247;53.330;-1.180;2022-10-31T00:27:35;75.00;;;8.90;;
14326;SDS011;7247;53.330;-1.180;2022-10-31T00:30:01;118.57;;;10.93;;
14326;SDS011;7247;53.330;-1.180;2022-10-31T00:32:28;207.43;;;18.50;;
14326;SDS011;7247;53.330;-1.180;2022-10-31T00:34:54;129.47;;;14.77;;
14326;SDS011;7247;53.330;-1.180;2022-10-31T00:37:21;55.20;;;7.07;;
14326;SDS011;7247;53.330;-1.180;2022-10-31T00:39:47;154.43;;;15.67;;
14326;SDS011;7247;53.330;-1.180;2022-10-31T00:42:14;281.93;;;20.57;;
14326;SDS011;7247;53.330;-1.180;2022-10-31T00:44:42;94.40;;;9.90;;
14326;SDS011;7247;53.330;-1.180;2022-10-31T00:47:08;48.30;;;7.57;;
14326;SDS011;7247;53.330;-1.180;2022-10-31T00:49:35;64.27;;;8.37;;
14326;SDS011;7247;53.330;-1.180;2022-10-31T00:52:01;54.83;;;8.53;;
14326;SDS011;7247;53.330;-1.180;2022-10-31T00:54:28;68.07;;;8.13;;
14326;SDS011;7247;53.330;-1.180;2022-10-31T00:56:55;176.10;;;16.07;;
14326;SDS011;7247;53.330;-1.180;2022-10-31T00:59:22;103.17;;;10.60;;
14326;SDS011;7247;53.330;-1.180;2022-10-31T01:01:50;143.63;;;15.67;;
14326;SDS011;7247;53.330;-1.180;2022-10-31T01:04:16;101.43;;;9.77;;
14326;SDS011;7247;53.330;-1.180;2022-10-31T01:06:43;79.17;;;9.67;;
14326;SDS011;7247;53.330;-1.180;2022-10-31T01:09:09;207.60;;;17.37;;
14326;SDS011;7247;53.330;-1.180;2022-10-31T01:11:35;282.63;;;20.33;;
14326;SDS011;7247;53.330;-1.180;2022-10-31T01:14:02;78.57;;;9.07;;
14326;SDS011;7247;53.330;-1.180;2022-10-31T01:16:28;64.00;;;8.47;;
14326;SDS011;7247;53.330;-1.180;2022-10-31T01:18:56;49.57;;;8.30;;
14326;SDS011;7247;53.330;-1.180;2022-10-31T01:21:24;37.77;;;7.53;;
14326;SDS011;7247;53.330;-1.180;2022-10-31T01:23:50;36.50;;;6.53;;
14326;SDS011;7247;53.330;-1.180;2022-10-31T01:26:20;42.23;;;6.67;;
14326;SDS011;7247;53.330;-1.180;2022-10-31T01:28:47;44.90;;;7.23;;
14326;SDS011;7247;53.330;-1.180;2022-10-31T01:31:14;31.23;;;6.93;;
14326;SDS011;7247;53.330;-1.180;2022-10-31T01:33:40;33.27;;;5.97;;
14326;SDS011;7247;53.330;-1.180;2022-10-31T01:36:18;31.87;;;6.50;;
14326;SDS011;7247;53.330;-1.180;2022-10-31T01:38:45;33.67;;;6.37;;
14326;SDS011;7247;53.330;-1.180;2022-10-31T01:41:12;35.43;;;6.10;;
14326;SDS011;7247;53.330;-1.180;2022-10-31T01:43:46;34.77;;;6.70;;
14326;SDS011;7247;53.330;-1.180;2022-10-31T01:46:13;36.17;;;7.57;;
14326;SDS011;7247;53.330;-1.180;2022-10-31T01:48:40;41.43;;;7.27;;
14326;SDS011;7247;53.330;-1.180;2022-10-31T01:51:06;28.20;;;6.20;;
14326;SDS011;7247;53.330;-1.180;2022-10-31T01:53:36;32.50;;;7.03;;
14326;SDS011;7247;53.330;-1.180;2022-10-31T01:56:03;38.03;;;7.80;;
14326;SDS011;7247;53.330;-1.180;2022-10-31T01:58:29;41.63;;;7.93;;
14326;SDS011;7247;53.330;-1.180;2022-10-31T02:00:57;36.10;;;8.00;;
14326;SDS011;7247;53.330;-1.180;2022-10-31T02:03:24;35.37;;;8.40;;
14326;SDS011;7247;53.330;-1.180;2022-10-31T02:05:51;38.57;;;8.00;;
14326;SDS011;7247;53.330;-1.180;2022-10-31T02:08:20;43.70;;;9.47;;
14326;SDS011;7247;53.330;-1.180;2022-10-31T02:10:49;32.97;;;7.77;;
14326;SDS011;7247;53.330;-1.180;2022-10-31T02:13:15;33.17;;;8.10;;
14326;SDS011;7247;53.330;-1.180;2022-10-31T02:15:43;27.63;;;7.60;;
14326;SDS011;7247;53.330;-1.180;2022-10-31T02:18:10;35.70;;;7.60;;
14326;SDS011;7247;53.330;-1.180;2022-10-31T02:20:39;39.73;;;7.57;;
14326;SDS011;7247;53.330;-1.180;2022-10-31T02:23:27;40.13;;;7.90;;
14326;SDS011;7247;53.330;-1.180;2022-10-31T02:26:07;30.60;;;7.57;;
14326;SDS011;7247;53.330;-1.180;2022-10-31T02:28:43;29.37;;;7.07;;
14326;SDS011;7247;53.330;-1.180;2022-10-31T02:31:22;32.77;;;7.23;;
14326;SDS011;7247;53.330;-1.180;2022-10-31T02:33:53;35.37;;;6.87;;
14326;SDS011;7247;53.330;-1.180;2022-10-31T02:36:22;27.53;;;6.33;;
14326;SDS011;7247;53.330;-1.180;2022-10-31T02:38:51;34.50;;;6.83;;
14326;SDS011;7247;53.330;-1.180;2022-10-31T02:41:23;23.97;;;6.03;;
14326;SDS011;7247;53.330;-1.180;2022-10-31T02:43:54;29.37;;;5.83;;
14326;SDS011;7247;53.330;-1.180;2022-10-31T02:46:27;30.00;;;5.80;;
14326;SDS011;7247;53.330;-1.180;2022-10-31T02:48:55;28.37;;;6.10;;
14326;SDS011;7247;53.330;-1.180;2022-10-31T02:51:28;27.57;;;6.17;;
14326;SDS011;7247;53.330;-1.180;2022-10-31T02:53:56;24.13;;;5.30;;
14326;SDS011;7247;53.330;-1.180;2022-10-31T02:56:22;24.93;;;5.07;;
14326;SDS011;7247;53.330;-1.180;2022-10-31T02:58:49;25.77;;;5.57;;
14326;SDS011;7247;53.330;-1.180;2022-10-31T03:04:16;23.77;;;5.10;;
14326;SDS011;7247;53.330;-1.180;2022-10-31T03:06:45;19.47;;;4.77;;
14326;SDS011;7247;53.330;-1.180;2022-10-31T03:09:17;25.90;;;6.03;;
14326;SDS011;7247;53.330;-1.180;2022-10-31T03:11:48;23.67;;;5.37;;
14326;SDS011;7247;53.330;-1.180;2022-10-31T03:14:17;18.67;;;5.13;;
14326;SDS011;7247;53.330;-1.180;2022-10-31T03:16:46;23.83;;;4.90;;
14326;SDS011;7247;53.330;-1.180;2022-10-31T03:19:15;24.67;;;4.93;;
14326;SDS011;7247;53.330;-1.180;2022-10-31T03:21:43;24.37;;;5.77;;
14326;SDS011;7247;53.330;-1.180;2022-10-31T03:24:11;26.10;;;5.33;;
14326;SDS011;7247;53.330;-1.180;2022-10-31T03:26:39;23.53;;;4.57;;
14326;SDS011;7247;53.330;-1.180;2022-10-31T03:29:07;21.33;;;4.73;;
14326;SDS011;7247;53.330;-1.180;2022-10-31T03:31:35;21.67;;;4.57;;
14326;SDS011;7247;53.330;-1.180;2022-10-31T03:34:03;26.73;;;5.40;;
14326;SDS011;7247;53.330;-1.180;2022-10-31T03:36:32;22.33;;;5.20;;
14326;SDS011;7247;53.330;-1.180;2022-10-31T03:39:01;20.50;;;4.77;;
14326;SDS011;7247;53.330;-1.180;2022-10-31T03:41:28;19.77;;;4.60;;
14326;SDS011;7247;53.330;-1.180;2022-10-31T03:43:58;21.70;;;4.50;;
14326;SDS011;7247;53.330;-1.180;2022-10-31T03:46:25;22.20;;;4.60;;
14326;SDS011;7247;53.330;-1.180;2022-10-31T03:48:52;20.27;;;5.10;;
14326;SDS011;7247;53.330;-1.180;2022-10-31T03:51:20;25.10;;;4.90;;
14326;SDS011;7247;53.330;-1.180;2022-10-31T03:53:51;23.50;;;4.70;;
14326;SDS011;7247;53.330;-1.180;2022-10-31T03:56:19;25.33;;;5.17;;
14326;SDS011;7247;53.330;-1.180;2022-10-31T03:58:48;24.50;;;4.73;;
14326;SDS011;7247;53.330;-1.180;2022-10-31T04:01:19;22.67;;;4.57;;
14326;SDS011;7247;53.330;-1.180;2022-10-31T04:03:47;30.83;;;5.23;;
14326;SDS011;7247;53.330;-1.180;2022-10-31T04:06:14;18.60;;;4.63;;
14326;SDS011;7247;53.330;-1.180;2022-10-31T04:08:43;19.37;;;4.50;;
14326;SDS011;7247;53.330;-1.180;2022-10-31T04:11:12;28.40;;;5.47;;
14326;SDS011;7247;53.330;-1.180;2022-10-31T04:13:39;25.63;;;4.30;;
14326;SDS011;7247;53.330;-1.180;2022-10-31T04:16:06;27.30;;;4.93;;
14326;SDS011;7247;53.330;-1.180;2022-10-31T04:18:33;19.83;;;4.43;;
14326;SDS011;7247;53.330;-1.180;2022-10-31T04:21:00;32.40;;;4.93;;
14326;SDS011;7247;53.330;-1.180;2022-10-31T04:23:27;21.60;;;4.30;;
14326;SDS011;7247;53.330;-1.180;2022-10-31T04:25:54;21.80;;;4.53;;
14326;SDS011;7247;53.330;-1.180;2022-10-31T04:28:21;24.37;;;4.07;;
14326;SDS011;7247;53.330;-1.180;2022-10-31T04:30:48;27.77;;;5.03;;
14326;SDS011;7247;53.330;-1.180;2022-10-31T04:33:14;32.10;;;5.07;;
14326;SDS011;7247;53.330;-1.180;2022-10-31T04:35:41;26.33;;;5.40;;
14326;SDS011;7247;53.330;-1.180;2022-10-31T04:38:07;30.30;;;5.53;;
14326;SDS011;7247;53.330;-1.180;2022-10-31T04:40:34;26.43;;;4.90;;
14326;SDS011;7247;53.330;-1.180;2022-10-31T04:43:00;21.30;;;4.63;;
14326;SDS011;7247;53.330;-1.180;2022-10-31T04:45:28;28.97;;;5.33;;
14326;SDS011;7247;53.330;-1.180;2022-10-31T04:47:54;23.27;;;4.90;;
14326;SDS011;7247;53.330;-1.180;2022-10-31T04:50:21;25.43;;;5.50;;
14326;SDS011;7247;53.330;-1.180;2022-10-31T04:52:47;32.20;;;6.10;;
14326;SDS011;7247;53.330;-1.180;2022-10-31T04:55:14;26.00;;;4.70;;
14326;SDS011;7247;53.330;-1.180;2022-10-31T04:57:41;24.03;;;4.93;;
14326;SDS011;7247;53.330;-1.180;2022-10-31T05:00:08;27.57;;;5.03;;
14326;SDS011;7247;53.330;-1.180;2022-10-31T05:02:41;20.53;;;4.70;;
14326;SDS011;7247;53.330;-1.180;2022-10-31T05:05:08;26.97;;;5.37;;
14326;SDS011;7247;53.330;-1.180;2022-10-31T05:07:37;26.60;;;6.00;;
14326;SDS011;7247;53.330;-1.180;2022-10-31T05:10:04;27.70;;;5.17;;
14326;SDS011;7247;53.330;-1.180;2022-10-31T05:12:31;24.67;;;5.53;;
14326;SDS011;7247;53.330;-1.180;2022-10-31T05:14:57;28.87;;;5.43;;
14326;SDS011;7247;53.330;-1.180;2022-10-31T05:17:24;22.90;;;5.53;;
14326;SDS011;7247;53.330;-1.180;2022-10-31T05:19:52;26.07;;;4.83;;
14326;SDS011;7247;53.330;-1.180;2022-10-31T05:22:18;27.97;;;4.90;;
14326;SDS011;7247;53.330;-1.180;2022-10-31T05:24:44;23.17;;;5.90;;
14326;SDS011;7247;53.330;-1.180;2022-10-31T05:27:11;33.43;;;6.33;;
14326;SDS011;7247;53.330;-1.180;2022-10-31T05:29:37;30.67;;;6.73;;
14326;SDS011;7247;53.330;-1.180;2022-10-31T05:32:04;34.23;;;6.37;;
14326;SDS011;7247;53.330;-1.180;2022-10-31T05:34:30;33.27;;;5.93;;
14326;SDS011;7247;53.330;-1.180;2022-10-31T05:36:58;35.70;;;5.57;;
14326;SDS011;7247;53.330;-1.180;2022-10-31T05:39:24;24.37;;;5.07;;
14326;SDS011;7247;53.330;-1.180;2022-10-31T05:41:51;35.03;;;5.60;;
14326;SDS011;7247;53.330;-1.180;2022-10-31T05:44:17;26.00;;;5.43;;
14326;SDS011;7247;53.330;-1.180;2022-10-31T05:46:45;24.17;;;5.13;;
14326;SDS011;7247;53.330;-1.180;2022-10-31T05:49:11;19.77;;;5.40;;
14326;SDS011;7247;53.330;-1.180;2022-10-31T05:51:38;28.37;;;5.87;;
14326;SDS011;7247;53.330;-1.180;2022-10-31T05:54:07;26.90;;;5.33;;
14326;SDS011;7247;53.330;-1.180;2022-10-31T05:56:34;24.63;;;5.27;;
14326;SDS011;7247;53.330;-1.180;2022-10-31T05:59:00;25.80;;;5.10;;
14326;SDS011;7247;53.330;-1.180;2022-10-31T06:01:26;29.20;;;5.67;;
14326;SDS011;7247;53.330;-1.180;2022-10-31T06:03:53;21.63;;;5.00;;
14326;SDS011;7247;53.330;-1.180;2022-10-31T06:06:19;25.50;;;4.77;;
14326;SDS011;7247;53.330;-1.180;2022-10-31T06:08:46;25.43;;;4.87;;
14326;SDS011;7247;53.330;-1.180;2022-10-31T06:11:13;21.63;;;5.00;;
14326;SDS011;7247;53.330;-1.180;2022-10-31T06:13:40;19.87;;;4.67;;
14326;SDS011;7247;53.330;-1.180;2022-10-31T06:16:06;27.27;;;5.07;;
14326;SDS011;7247;53.330;-1.180;2022-10-31T06:18:33;24.27;;;5.00;;
14326;SDS011;7247;53.330;-1.180;2022-10-31T06:20:59;20.20;;;4.60;;
14326;SDS011;7247;53.330;-1.180;2022-10-31T06:23:25;20.83;;;4.47;;
14326;SDS011;7247;53.330;-1.180;2022-10-31T06:25:52;22.13;;;4.73;;
14326;SDS011;7247;53.330;-1.180;2022-10-31T06:28:20;22.47;;;5.13;;
14326;SDS011;7247;53.330;-1.180;2022-10-31T06:30:46;21.77;;;5.30;;
14326;SDS011;7247;53.330;-1.180;2022-10-31T06:33:13;23.77;;;5.47;;
14326;SDS011;7247;53.330;-1.180;2022-10-31T06:35:44;21.40;;;5.43;;
14326;SDS011;7247;53.330;-1.180;2022-10-31T06:38:10;26.43;;;5.37;;
14326;SDS011;7247;53.330;-1.180;2022-10-31T06:40:37;17.10;;;4.47;;
14326;SDS011;7247;53.330;-1.180;2022-10-31T06:43:03;25.37;;;5.00;;
14326;SDS011;7247;53.330;-1.180;2022-10-31T06:45:31;21.90;;;4.47;;
14326;SDS011;7247;53.330;-1.180;2022-10-31T06:47:58;21.23;;;4.20;;
14326;SDS011;7247;53.330;-1.180;2022-10-31T06:50:24;21.87;;;4.10;;
14326;SDS011;7247;53.330;-1.180;2022-10-31T06:52:51;17.97;;;4.27;;
14326;SDS011;7247;53.330;-1.180;2022-10-31T06:55:17;17.57;;;4.63;;
14326;SDS011;7247;53.330;-1.180;2022-10-31T06:57:48;22.53;;;5.00;;
14326;SDS011;7247;53.330;-1.180;2022-10-31T07:00:15;21.30;;;5.50;;
14326;SDS011;7247;53.330;-1.180;2022-10-31T07:02:43;21.97;;;5.10;;
14326;SDS011;7247;53.330;-1.180;2022-10-31T07:05:09;24.80;;;4.97;;
14326;SDS011;7247;53.330;-1.180;2022-10-31T07:07:36;28.30;;;5.43;;
14326;SDS011;7247;53.330;-1.180;2022-10-31T07:10:02;23.47;;;5.20;;
14326;SDS011;7247;53.330;-1.180;2022-10-31T07:12:29;23.37;;;5.37;;
14326;SDS011;7247;53.330;-1.180;2022-10-31T07:14:55;24.10;;;5.27;;
14326;SDS011;7247;53.330;-1.180;2022-10-31T07:17:23;24.13;;;5.10;;
14326;SDS011;7247;53.330;-1.180;2022-10-31T07:19:50;21.83;;;5.40;;
14326;SDS011;7247;53.330;-1.180;2022-10-31T07:22:17;25.73;;;5.97;;
14326;SDS011;7247;53.330;-1.180;2022-10-31T07:24:43;23.73;;;5.97;;
14326;SDS011;7247;53.330;-1.180;2022-10-31T07:27:10;25.37;;;5.70;;
14326;SDS011;7247;53.330;-1.180;2022-10-31T07:29:36;17.70;;;5.47;;
14326;SDS011;7247;53.330;-1.180;2022-10-31T07:32:03;24.83;;;6.07;;
14326;SDS011;7247;53.330;-1.180;2022-10-31T07:34:29;25.47;;;6.80;;
14326;SDS011;7247;53.330;-1.180;2022-10-31T07:36:57;23.47;;;6.40;;
14326;SDS011;7247;53.330;-1.180;2022-10-31T07:39:24;23.07;;;6.43;;
14326;SDS011;7247;53.330;-1.180;2022-10-31T07:41:50;19.00;;;5.67;;
14326;SDS011;7247;53.330;-1.180;2022-10-31T07:44:16;25.87;;;6.03;;
14326;SDS011;7247;53.330;-1.180;2022-10-31T07:46:43;21.17;;;5.40;;
14326;SDS011;7247;53.330;-1.180;2022-10-31T07:49:09;21.43;;;5.37;;
14326;SDS011;7247;53.330;-1.180;2022-10-31T07:51:36;26.90;;;5.30;;
14326;SDS011;7247;53.330;-1.180;2022-10-31T07:54:04;21.80;;;5.17;;
14326;SDS011;7247;53.330;-1.180;2022-10-31T07:56:30;22.40;;;4.90;;
14326;SDS011;7247;53.330;-1.180;2022-10-31T07:58:57;22.80;;;5.13;;
14326;SDS011;7247;53.330;-1.180;2022-10-31T08:01:23;20.53;;;4.97;;
14326;SDS011;7247;53.330;-1.180;2022-10-31T08:03:49;17.73;;;4.50;;
14326;SDS011;7247;53.330;-1.180;2022-10-31T08:06:16;23.73;;;5.80;;
14326;SDS011;7247;53.330;-1.180;2022-10-31T08:08:42;21.73;;;5.40;;
14326;SDS011;7247;53.330;-1.180;2022-10-31T08:11:10;21.97;;;5.27;;
14326;SDS011;7247;53.330;-1.180;2022-10-31T08:13:37;21.00;;;5.13;;
14326;SDS011;7247;53.330;-1.180;2022-10-31T08:16:03;14.43;;;4.93;;
14326;SDS011;7247;53.330;-1.180;2022-10-31T08:18:32;22.43;;;4.83;;
14326;SDS011;7247;53.330;-1.180;2022-10-31T08:20:59;23.33;;;5.27;;
14326;SDS011;7247;53.330;-1.180;2022-10-31T08:23:25;16.20;;;5.07;;
14326;SDS011;7247;53.330;-1.180;2022-10-31T08:25:52;20.87;;;5.67;;
14326;SDS011;7247;53.330;-1.180;2022-10-31T08:28:20;20.93;;;5.20;;
14326;SDS011;7247;53.330;-1.180;2022-10-31T08:30:46;22.37;;;4.93;;
14326;SDS011;7247;53.330;-1.180;2022-10-31T08:33:13;21.13;;;4.73;;
14326;SDS011;7247;53.330;-1.180;2022-10-31T08:35:40;16.80;;;4.73;;
14326;SDS011;7247;53.330;-1.180;2022-10-31T08:38:08;21.80;;;4.10;;
14326;SDS011;7247;53.330;-1.180;2022-10-31T08:40:34;17.13;;;4.50;;
14326;SDS011;7247;53.330;-1.180;2022-10-31T08:43:02;17.20;;;4.13;;
14326;SDS011;7247;53.330;-1.180;2022-10-31T08:45:31;21.37;;;4.40;;
14326;SDS011;7247;53.330;-1.180;2022-10-31T08:47:57;20.87;;;4.80;;
14326;SDS011;7247;53.330;-1.180;2022-10-31T08:50:25;19.03;;;4.67;;
14326;SDS011;7247;53.330;-1.180;2022-10-31T08:52:51;17.17;;;4.37;;
14326;SDS011;7247;53.330;-1.180;2022-10-31T08:55:18;17.17;;;4.30;;
14326;SDS011;7247;53.330;-1.180;2022-10-31T08:57:44;17.43;;;4.37;;
14326;SDS011;7247;53.330;-1.180;2022-10-31T09:00:11;16.80;;;4.47;;
14326;SDS011;7247;53.330;-1.180;2022-10-31T09:02:39;17.53;;;4.50;;
14326;SDS011;7247;53.330;-1.180;2022-10-31T09:05:05;17.87;;;5.23;;
14326;SDS011;7247;53.330;-1.180;2022-10-31T09:07:32;19.93;;;4.70;;
14326;SDS011;7247;53.330;-1.180;2022-10-31T09:09:58;15.37;;;4.37;;
14326;SDS011;7247;53.330;-1.180;2022-10-31T09:12:25;18.30;;;4.57;;
14326;SDS011;7247;53.330;-1.180;2022-10-31T09:14:51;18.97;;;4.40;;
14326;SDS011;7247;53.330;-1.180;2022-10-31T09:17:17;14.27;;;4.60;;
14326;SDS011;7247;53.330;-1.180;2022-10-31T09:19:45;14.33;;;4.37;;
14326;SDS011;7247;53.330;-1.180;2022-10-31T09:22:12;15.47;;;4.77;;
14326;SDS011;7247;53.330;-1.180;2022-10-31T09:24:38;19.10;;;5.20;;
14326;SDS011;7247;53.330;-1.180;2022-10-31T09:27:04;14.43;;;4.60;;
14326;SDS011;7247;53.330;-1.180;2022-10-31T09:29:31;17.07;;;4.93;;
14326;SDS011;7247;53.330;-1.180;2022-10-31T09:31:57;14.13;;;4.70;;
14326;SDS011;7247;53.330;-1.180;2022-10-31T09:34:24;20.90;;;5.10;;
14326;SDS011;7247;53.330;-1.180;2022-10-31T09:36:52;16.23;;;5.10;;
14326;SDS011;7247;53.330;-1.180;2022-10-31T09:39:19;18.73;;;5.50;;
14326;SDS011;7247;53.330;-1.180;2022-10-31T09:41:52;19.97;;;5.37;;
14326;SDS011;7247;53.330;-1.180;2022-10-31T09:44:23;16.57;;;5.10;;
14326;SDS011;7247;53.330;-1.180;2022-10-31T09:46:53;16.80;;;5.47;;
14326;SDS011;7247;53.330;-1.180;2022-10-31T09:49:24;19.70;;;5.07;;
14326;SDS011;7247;53.330;-1.180;2022-10-31T09:54:40;14.90;;;4.43;;
14326;SDS011;7247;53.330;-1.180;2022-10-31T09:57:09;16.47;;;4.33;;
14326;SDS011;7247;53.330;-1.180;2022-10-31T09:59:37;18.83;;;4.63;;
14326;SDS011;7247;53.330;-1.180;2022-10-31T10:02:05;11.40;;;3.83;;
14326;SDS011;7247;53.330;-1.180;2022-10-31T10:04:37;15.73;;;3.37;;
14326;SDS011;7247;53.330;-1.180;2022-10-31T10:07:09;16.10;;;3.87;;
14326;SDS011;7247;53.330;-1.180;2022-10-31T10:09:38;13.07;;;4.00;;
14326;SDS011;7247;53.330;-1.180;2022-10-31T10:12:07;14.13;;;3.87;;
14326;SDS011;7247;53.330;-1.180;2022-10-31T10:14:41;10.50;;;3.70;;
14326;SDS011;7247;53.330;-1.180;2022-10-31T10:17:15;13.80;;;3.90;;
14326;SDS011;7247;53.330;-1.180;2022-10-31T10:22:36;9.27;;;3.03;;
14326;SDS011;7247;53.330;-1.180;2022-10-31T10:25:14;13.30;;;3.07;;
14326;SDS011;7247;53.330;-1.180;2022-10-31T10:27:49;14.67;;;3.50;;
14326;SDS011;7247;53.330;-1.180;2022-10-31T10:30:17;11.67;;;2.93;;
14326;SDS011;7247;53.330;-1.180;2022-10-31T10:32:46;14.23;;;3.47;;
14326;SDS011;7247;53.330;-1.180;2022-10-31T10:35:17;12.87;;;3.17;;
14326;SDS011;7247;53.330;-1.180;2022-10-31T10:37:46;10.17;;;3.00;;
14326;SDS011;7247;53.330;-1.180;2022-10-31T10:40:15;14.27;;;3.30;;
14326;SDS011;7247;53.330;-1.180;2022-10-31T10:42:43;12.03;;;2.73;;
14326;SDS011;7247;53.330;-1.180;2022-10-31T10:45:25;14.10;;;3.33;;
14326;SDS011;7247;53.330;-1.180;2022-10-31T10:48:11;13.37;;;3.20;;
14326;SDS011;7247;53.330;-1.180;2022-10-31T10:50:41;14.53;;;3.17;;
14326;SDS011;7247;53.330;-1.180;2022-10-31T10:53:23;12.03;;;3.37;;
14326;SDS011;7247;53.330;-1.180;2022-10-31T10:56:00;13.03;;;3.23;;
14326;SDS011;7247;53.330;-1.180;2022-10-31T10:58:28;11.50;;;3.40;;
14326;SDS011;7247;53.330;-1.180;2022-10-31T11:00:55;14.40;;;3.57;;
14326;SDS011;7247;53.330;-1.180;2022-10-31T11:03:21;11.03;;;2.80;;
14326;SDS011;7247;53.330;-1.180;2022-10-31T11:05:49;11.33;;;2.63;;
14326;SDS011;7247;53.330;-1.180;2022-10-31T11:08:23;12.67;;;3.00;;
14326;SDS011;7247;53.330;-1.180;2022-10-31T11:10:55;10.97;;;3.00;;
14326;SDS011;7247;53.330;-1.180;2022-10-31T11:13:23;10.73;;;2.93;;
14326;SDS011;7247;53.330;-1.180;2022-10-31T11:15:51;12.60;;;3.03;;
14326;SDS011;7247;53.330;-1.180;2022-10-31T11:18:19;12.67;;;2.87;;
14326;SDS011;7247;53.330;-1.180;2022-10-31T11:20:50;12.07;;;2.97;;
14326;SDS011;7247;53.330;-1.180;2022-10-31T11:23:17;12.97;;;3.00;;
14326;SDS011;7247;53.330;-1.180;2022-10-31T11:25:47;11.83;;;2.90;;
14326;SDS011;7247;53.330;-1.180;2022-10-31T11:28:14;10.63;;;2.70;;
14326;SDS011;7247;53.330;-1.180;2022-10-31T11:30:44;12.73;;;2.83;;
14326;SDS011;7247;53.330;-1.180;2022-10-31T11:33:13;10.43;;;2.70;;
14326;SDS011;7247;53.330;-1.180;2022-10-31T11:35:41;12.37;;;2.83;;
14326;SDS011;7247;53.330;-1.180;2022-10-31T11:38:07;11.47;;;3.07;;
14326;SDS011;7247;53.330;-1.180;2022-10-31T11:40:33;9.97;;;2.80;;
14326;SDS011;7247;53.330;-1.180;2022-10-31T11:43:00;10.10;;;3.53;;
14326;SDS011;7247;53.330;-1.180;2022-10-31T11:45:31;12.43;;;3.10;;
14326;SDS011;7247;53.330;-1.180;2022-10-31T11:48:00;11.50;;;3.47;;
14326;SDS011;7247;53.330;-1.180;2022-10-31T11:50:28;9.90;;;3.10;;
14326;SDS011;7247;53.330;-1.180;2022-10-31T11:52:55;8.93;;;2.80;;
14326;SDS011;7247;53.330;-1.180;2022-10-31T11:55:29;10.73;;;3.20;;
14326;SDS011;7247;53.330;-1.180;2022-10-31T11:57:56;10.27;;;3.20;;
14326;SDS011;7247;53.330;-1.180;2022-10-31T12:00:23;14.37;;;3.13;;
14326;SDS011;7247;53.330;-1.180;2022-10-31T12:02:50;8.47;;;2.70;;
14326;SDS011;7247;53.330;-1.180;2022-10-31T12:05:19;15.00;;;3.87;;
14326;SDS011;7247;53.330;-1.180;2022-10-31T12:07:47;9.73;;;4.17;;
14326;SDS011;7247;53.330;-1.180;2022-10-31T12:10:14;11.87;;;4.30;;
14326;SDS011;7247;53.330;-1.180;2022-10-31T12:15:27;13.30;;;3.93;;
14326;SDS011;7247;53.330;-1.180;2022-10-31T12:17:57;8.63;;;3.50;;
14326;SDS011;7247;53.330;-1.180;2022-10-31T12:20:32;12.00;;;2.80;;
14326;SDS011;7247;53.330;-1.180;2022-10-31T12:23:02;12.60;;;3.30;;
14326;SDS011;7247;53.330;-1.180;2022-10-31T12:25:32;12.03;;;3.10;;
14326;SDS011;7247;53.330;-1.180;2022-10-31T12:28:06;11.23;;;3.30;;
14326;SDS011;7247;53.330;-1.180;2022-10-31T12:30:39;11.13;;;3.27;;
14326;SDS011;7247;53.330;-1.180;2022-10-31T12:35:51;9.13;;;3.07;;
14326;SDS011;7247;53.330;-1.180;2022-10-31T12:38:26;8.83;;;2.67;;
14326;SDS011;7247;53.330;-1.180;2022-10-31T12:41:00;8.83;;;2.87;;
14326;SDS011;7247;53.330;-1.180;2022-10-31T12:43:35;9.90;;;2.90;;
14326;SDS011;7247;53.330;-1.180;2022-10-31T12:46:02;11.10;;;3.10;;
14326;SDS011;7247;53.330;-1.180;2022-10-31T12:51:33;10.60;;;3.40;;
14326;SDS011;7247;53.330;-1.180;2022-10-31T12:54:05;12.37;;;3.07;;
14326;SDS011;7247;53.330;-1.180;2022-10-31T12:56:37;10.00;;;3.90;;
14326;SDS011;7247;53.330;-1.180;2022-10-31T12:59:08;13.27;;;3.40;;
14326;SDS011;7247;53.330;-1.180;2022-10-31T13:01:36;10.70;;;3.13;;
14326;SDS011;7247;53.330;-1.180;2022-10-31T13:04:10;7.87;;;3.10;;
14326;SDS011;7247;53.330;-1.180;2022-10-31T13:06:40;13.13;;;3.20;;
14326;SDS011;7247;53.330;-1.180;2022-10-31T13:09:07;11.57;;;3.30;;
14326;SDS011;7247;53.330;-1.180;2022-10-31T13:11:35;10.77;;;3.73;;
14326;SDS011;7247;53.330;-1.180;2022-10-31T13:14:05;10.07;;;3.30;;
14326;SDS011;7247;53.330;-1.180;2022-10-31T13:16:34;12.53;;;3.23;;
14326;SDS011;7247;53.330;-1.180;2022-10-31T13:19:02;10.93;;;2.97;;
14326;SDS011;7247;53.330;-1.180;2022-10-31T13:21:30;11.13;;;3.20;;
14326;SDS011;7247;53.330;-1.180;2022-10-31T13:24:01;9.43;;;2.83;;
14326;SDS011;7247;53.330;-1.180;2022-10-31T13:26:34;12.77;;;3.33;;
14326;SDS011;7247;53.330;-1.180;2022-10-31T13:29:02;15.23;;;2.87;;
14326;SDS011;7247;53.330;-1.180;2022-10-31T13:31:31;10.27;;;3.63;;
14326;SDS011;7247;53.330;-1.180;2022-10-31T13:34:00;10.10;;;2.83;;
14326;SDS011;7247;53.330;-1.180;2022-10-31T13:36:29;10.67;;;2.90;;
14326;SDS011;7247;53.330;-1.180;2022-10-31T13:38:59;9.43;;;2.77;;
14326;SDS011;7247;53.330;-1.180;2022-10-31T13:41:32;9.70;;;2.70;;
14326;SDS011;7247;53.330;-1.180;2022-10-31T13:44:01;10.20;;;2.97;;
14326;SDS011;7247;53.330;-1.180;2022-10-31T13:46:36;10.87;;;2.80;;
14326;SDS011;7247;53.330;-1.180;2022-10-31T13:49:03;9.77;;;2.80;;
14326;SDS011;7247;53.330;-1.180;2022-10-31T13:51:30;8.30;;;2.90;;
14326;SDS011;7247;53.330;-1.180;2022-10-31T13:53:58;9.10;;;2.67;;
14326;SDS011;7247;53.330;-1.180;2022-10-31T13:56:25;11.33;;;3.00;;
14326;SDS011;7247;53.330;-1.180;2022-10-31T13:59:02;10.93;;;3.00;;
14326;SDS011;7247;53.330;-1.180;2022-10-31T14:01:29;8.73;;;2.93;;
14326;SDS011;7247;53.330;-1.180;2022-10-31T14:03:59;9.37;;;3.20;;
14326;SDS011;7247;53.330;-1.180;2022-10-31T14:06:34;8.13;;;2.43;;
14326;SDS011;7247;53.330;-1.180;2022-10-31T14:09:02;9.63;;;2.87;;
14326;SDS011;7247;53.330;-1.180;2022-10-31T14:11:28;10.47;;;3.00;;
14326;SDS011;7247;53.330;-1.180;2022-10-31T14:13:56;11.80;;;2.90;;
14326;SDS011;7247;53.330;-1.180;2022-10-31T14:16:25;14.03;;;3.30;;
14326;SDS011;7247;53.330;-1.180;2022-10-31T14:18:57;11.90;;;3.20;;
14326;SDS011;7247;53.330;-1.180;2022-10-31T14:21:28;11.53;;;3.40;;
14326;SDS011;7247;53.330;-1.180;2022-10-31T14:23:55;12.13;;;3.47;;
14326;SDS011;7247;53.330;-1.180;2022-10-31T14:26:32;10.63;;;3.20;;
14326;SDS011;7247;53.330;-1.180;2022-10-31T14:28:59;13.33;;;3.80;;
14326;SDS011;7247;53.330;-1.180;2022-10-31T14:31:31;9.67;;;3.20;;
14326;SDS011;7247;53.330;-1.180;2022-10-31T14:33:59;13.13;;;3.30;;
14326;SDS011;7247;53.330;-1.180;2022-10-31T14:36:28;12.40;;;3.63;;
14326;SDS011;7247;53.330;-1.180;2022-10-31T14:38:57;10.10;;;3.03;;
14326;SDS011;7247;53.330;-1.180;2022-10-31T14:41:31;9.63;;;3.17;;
14326;SDS011;7247;53.330;-1.180;2022-10-31T14:44:14;9.97;;;3.17;;
14326;SDS011;7247;53.330;-1.180;2022-10-31T14:46:46;9.37;;;3.57;;
14326;SDS011;7247;53.330;-1.180;2022-10-31T14:49:21;9.90;;;3.03;;
14326;SDS011;7247;53.330;-1.180;2022-10-31T14:51:50;13.40;;;3.27;;
14326;SDS011;7247;53.330;-1.180;2022-10-31T14:54:18;13.80;;;3.30;;
14326;SDS011;7247;53.330;-1.180;2022-10-31T14:56:47;15.27;;;3.30;;
14326;SDS011;7247;53.330;-1.180;2022-10-31T14:59:15;13.33;;;3.23;;